createdAt,value
2022-09-03T00:02:34.796Z,1.98
2022-09-03T00:05:27.180Z,1.73
2022-09-03T00:08:21.674Z,1.50
2022-09-03T00:11:17.628Z,1.70
2022-09-03T00:14:09.064Z,1.85
2022-09-03T00:16:59.652Z,1.88
2022-09-03T00:19:54.333Z,2.00
2022-09-03T00:22:45.923Z,1.70
2022-09-03T00:25:40.009Z,1.70
2022-09-03T00:28:35.945Z,2.00
2022-09-03T00:31:28.432Z,1.75
2022-09-03T00:34:24.087Z,1.55
2022-09-03T00:37:14.422Z,1.95
2022-09-03T00:40:03.532Z,1.85
2022-09-03T00:43:02.103Z,2.10
2022-09-03T00:45:58.747Z,1.80
2022-09-03T00:48:59.794Z,1.80
2022-09-03T00:51:57.145Z,1.83
2022-09-03T00:54:54.664Z,2.15
2022-09-03T00:57:57.652Z,1.75
2022-09-03T01:00:46.661Z,2.35
2022-09-03T01:03:43.556Z,1.95
2022-09-03T01:06:42.974Z,1.90
2022-09-03T01:09:49.128Z,2.00
2022-09-03T01:12:43.659Z,2.00
2022-09-03T01:15:40.497Z,2.17
2022-09-03T01:18:38.866Z,2.33
2022-09-03T01:21:48.361Z,2.38
2022-09-03T01:24:59.355Z,1.85
2022-09-03T01:28:10.424Z,2.28
2022-09-03T01:31:04.032Z,2.30
2022-09-03T01:33:59.104Z,2.30
2022-09-03T01:36:56.462Z,2.67
2022-09-03T01:39:55.669Z,2.38
2022-09-03T01:42:55.245Z,2.47
2022-09-03T01:45:51.648Z,2.20
2022-09-03T01:48:47.534Z,2.47
2022-09-03T01:51:35.196Z,2.60
2022-09-03T01:54:45.334Z,2.70
2022-09-03T01:57:37.139Z,2.40
2022-09-03T02:00:25.416Z,2.28
2022-09-03T02:03:15.563Z,2.10
2022-09-03T02:06:03.819Z,2.65
2022-09-03T02:08:50.866Z,2.20
2022-09-03T02:11:38.186Z,2.42
2022-09-03T02:14:28.816Z,2.28
2022-09-03T02:17:15.832Z,2.60
2022-09-03T02:20:11.025Z,2.13
2022-09-03T02:22:59.981Z,2.20
2022-09-03T02:25:51.739Z,2.45
2022-09-03T02:28:39.120Z,2.38
2022-09-03T02:31:27.888Z,2.05
2022-09-03T02:34:15.053Z,2.10
2022-09-03T02:37:14.735Z,2.15
2022-09-03T02:40:02.206Z,2.33
2022-09-03T02:42:50.425Z,2.08
2022-09-03T02:45:44.616Z,2.50
2022-09-03T02:48:31.741Z,2.60
2022-09-03T02:51:18.889Z,2.88
2022-09-03T02:54:07.796Z,2.72
2022-09-03T02:56:55.162Z,3.03
2022-09-03T02:59:44.528Z,2.60
2022-09-03T03:02:31.573Z,2.28
2022-09-03T03:05:28.106Z,2.22
2022-09-03T03:08:17.117Z,2.45
2022-09-03T03:11:05.611Z,2.85
2022-09-03T03:13:53.121Z,2.65
2022-09-03T03:16:40.248Z,3.20
2022-09-03T03:19:27.091Z,2.83
2022-09-03T03:22:13.974Z,3.00
2022-09-03T03:25:01.582Z,3.00
2022-09-03T03:27:49.840Z,2.90
2022-09-03T03:30:40.346Z,2.70
2022-09-03T03:33:27.446Z,2.80
2022-09-03T03:36:16.764Z,2.83
2022-09-03T03:39:04.666Z,2.97
2022-09-03T03:41:52.526Z,2.92
2022-09-03T03:44:42.751Z,3.00
2022-09-03T03:47:31.009Z,2.88
2022-09-03T03:50:18.389Z,3.00
2022-09-03T03:53:05.636Z,2.85
2022-09-03T03:55:57.707Z,2.70
2022-09-03T03:58:45.298Z,2.85
2022-09-03T04:01:34.189Z,2.75
2022-09-03T04:04:21.757Z,2.92
2022-09-03T04:07:08.940Z,2.83
2022-09-03T04:09:56.160Z,2.90
2022-09-03T04:12:43.651Z,3.25
2022-09-03T04:15:31.001Z,3.17
2022-09-03T04:18:19.319Z,3.05
2022-09-03T04:21:08.912Z,3.17
2022-09-03T04:23:56.532Z,3.03
2022-09-03T04:26:43.504Z,3.05
2022-09-03T04:29:31.736Z,3.15
2022-09-03T04:32:33.940Z,2.88
2022-09-03T04:35:22.438Z,3.22
2022-09-03T04:38:08.456Z,3.17
2022-09-03T04:40:55.423Z,2.85
2022-09-03T04:43:43.821Z,3.30
2022-09-03T04:46:34.101Z,2.80
2022-09-03T04:49:21.698Z,2.70
2022-09-03T04:52:10.377Z,3.13
2022-09-03T04:54:57.291Z,2.80
2022-09-03T04:57:44.488Z,3.08
2022-09-03T05:00:31.910Z,3.38
2022-09-03T05:03:19.020Z,3.08
2022-09-03T05:06:08.163Z,2.97
2022-09-03T05:08:57.443Z,3.25
2022-09-03T05:11:45.151Z,2.85
2022-09-03T05:14:32.293Z,2.88
2022-09-03T05:17:19.454Z,2.50
2022-09-03T05:20:08.343Z,2.90
2022-09-03T05:22:55.194Z,3.58
2022-09-03T05:25:43.528Z,3.20
2022-09-03T05:28:32.189Z,3.58
2022-09-03T05:31:21.883Z,3.90
2022-09-03T05:34:10.364Z,3.30
2022-09-03T05:37:04.214Z,3.40
2022-09-03T05:39:51.416Z,2.72
2022-09-03T05:42:39.958Z,3.10
2022-09-03T05:45:26.903Z,3.20
2022-09-03T05:48:13.920Z,3.13
2022-09-03T05:51:02.138Z,3.10
2022-09-03T05:53:50.498Z,3.42
2022-09-03T05:56:40.239Z,3.22
2022-09-03T05:59:28.869Z,3.55
2022-09-03T06:02:26.166Z,3.42
2022-09-03T06:05:13.309Z,2.90
2022-09-03T06:08:00.474Z,3.30
2022-09-03T06:10:47.455Z,3.10
2022-09-03T06:13:35.545Z,3.25
2022-09-03T06:16:30.567Z,3.55
2022-09-03T06:19:19.917Z,3.28
2022-09-03T06:22:06.926Z,3.28
2022-09-03T06:24:54.666Z,3.40
2022-09-03T06:27:41.625Z,3.20
2022-09-03T06:30:28.777Z,3.28
2022-09-03T06:33:18.994Z,3.15
2022-09-03T06:36:08.984Z,3.10
2022-09-03T06:38:57.862Z,3.10
2022-09-03T06:41:46.157Z,3.13
2022-09-03T06:44:33.440Z,3.00
2022-09-03T06:47:20.649Z,2.80
2022-09-03T06:50:10.221Z,2.88
2022-09-03T06:52:57.220Z,2.50
2022-09-03T06:55:45.550Z,2.90
2022-09-03T06:58:35.453Z,3.05
2022-09-03T07:01:25.903Z,2.67
2022-09-03T07:04:16.479Z,2.80
2022-09-03T07:07:05.745Z,3.15
2022-09-03T07:09:52.885Z,2.72
2022-09-03T07:12:40.967Z,2.88
2022-09-03T07:15:28.460Z,2.67
2022-09-03T07:18:15.748Z,2.63
2022-09-03T07:21:05.260Z,2.70
2022-09-03T07:23:55.507Z,2.50
2022-09-03T07:26:46.544Z,2.47
2022-09-03T07:29:33.782Z,2.50
2022-09-03T07:32:21.088Z,2.60
2022-09-03T07:35:08.654Z,2.30
2022-09-03T07:37:56.575Z,2.90
2022-09-03T07:40:45.461Z,2.35
2022-09-03T07:43:38.324Z,2.58
2022-09-03T07:46:27.299Z,2.50
2022-09-03T07:49:14.764Z,2.85
2022-09-03T07:52:02.166Z,2.75
2022-09-03T07:54:49.526Z,3.80
2022-09-03T07:57:38.068Z,2.60
2022-09-03T08:00:25.206Z,3.30
2022-09-03T08:03:14.826Z,3.30
2022-09-03T08:06:03.949Z,3.70
2022-09-03T08:09:00.868Z,3.78
2022-09-03T08:11:51.711Z,4.05
2022-09-03T08:14:40.391Z,4.03
2022-09-03T08:17:27.310Z,4.00
2022-09-03T08:20:14.242Z,4.50
2022-09-03T08:23:03.517Z,4.20
2022-09-03T08:25:50.624Z,3.90
2022-09-03T08:28:38.961Z,4.55
2022-09-03T08:31:28.417Z,4.30
2022-09-03T08:34:17.686Z,4.38
2022-09-03T08:37:05.706Z,4.50
2022-09-03T08:39:53.008Z,4.38
2022-09-03T08:42:51.514Z,4.32
2022-09-03T08:45:39.469Z,4.20
2022-09-03T08:48:30.348Z,4.50
2022-09-03T08:51:23.192Z,4.40
2022-09-03T08:54:12.127Z,3.90
2022-09-03T08:57:03.234Z,3.80
2022-09-03T08:59:55.948Z,4.10
2022-09-03T09:03:01.728Z,3.95
2022-09-03T09:05:57.225Z,4.38
2022-09-03T09:08:55.781Z,3.20
2022-09-03T09:11:52.633Z,4.07
2022-09-03T09:14:46.531Z,3.47
2022-09-03T09:17:49.093Z,3.63
2022-09-03T09:20:44.766Z,3.22
2022-09-03T09:23:37.227Z,2.80
2022-09-03T09:26:24.560Z,2.83
2022-09-03T09:29:14.526Z,2.13
2022-09-03T09:32:01.789Z,2.50
2022-09-03T09:34:52.353Z,2.28
2022-09-03T09:37:49.552Z,1.88
2022-09-03T09:40:45.080Z,2.50
2022-09-03T09:43:33.057Z,1.88
2022-09-03T09:46:24.303Z,1.98
2022-09-03T09:49:33.140Z,2.03
2022-09-03T09:52:25.941Z,1.90
2022-09-03T09:55:18.541Z,1.60
2022-09-03T09:58:14.273Z,1.60
2022-09-03T10:01:13.466Z,1.65
2022-09-03T10:04:09.381Z,1.40
2022-09-03T10:06:58.365Z,1.60
2022-09-03T10:09:45.650Z,1.75
2022-09-03T10:12:37.998Z,1.23
2022-09-03T10:15:34.312Z,1.65
2022-09-03T10:18:29.185Z,1.42
2022-09-03T10:21:24.772Z,1.50
2022-09-03T10:24:30.321Z,1.30
2022-09-03T10:27:20.088Z,1.25
2022-09-03T10:30:08.918Z,1.70
2022-09-03T10:33:06.521Z,1.40
2022-09-03T10:36:06.906Z,1.70
2022-09-03T10:39:01.738Z,1.58
2022-09-03T10:42:03.813Z,1.40
2022-09-03T10:45:02.327Z,1.70
2022-09-03T10:48:13.364Z,1.48
2022-09-03T10:51:06.556Z,1.40
2022-09-03T10:56:54.828Z,1.40
2022-09-03T10:59:56.101Z,1.50
2022-09-03T11:03:07.845Z,1.17
2022-09-03T11:05:54.800Z,1.25
2022-09-03T11:08:51.268Z,1.60
2022-09-03T11:11:43.502Z,1.30
2022-09-03T11:14:39.682Z,1.50
2022-09-03T11:17:32.237Z,1.33
2022-09-03T11:20:22.427Z,1.33
2022-09-03T11:23:13.514Z,1.38
2022-09-03T11:26:07.154Z,1.30
2022-09-03T11:29:02.621Z,1.25
2022-09-03T11:31:59.202Z,1.00
2022-09-03T11:34:48.489Z,1.55
2022-09-03T11:37:51.361Z,1.20
2022-09-03T11:40:41.171Z,1.10
2022-09-03T11:43:32.349Z,1.10
2022-09-03T11:46:32.081Z,1.20
2022-09-03T11:49:31.135Z,1.30
2022-09-03T11:52:28.555Z,1.30
2022-09-03T11:55:32.661Z,1.30
2022-09-03T11:58:28.247Z,1.30
2022-09-03T12:01:19.902Z,1.15
2022-09-03T12:04:09.915Z,1.30
2022-09-03T12:07:20.137Z,1.35
2022-09-03T12:10:14.353Z,1.38
2022-09-03T12:13:15.191Z,1.38
2022-09-03T12:16:28.813Z,1.30
2022-09-03T12:22:15.122Z,2.08
2022-09-03T12:25:11.955Z,1.10
2022-09-03T12:28:05.257Z,1.23
2022-09-03T12:33:43.251Z,1.40
2022-09-03T12:36:41.170Z,1.10
2022-09-03T12:42:38.303Z,1.20
2022-09-03T12:46:10.008Z,1.70
2022-09-03T12:48:34.819Z,1.80
2022-09-03T12:54:30.791Z,1.75
2022-09-03T12:57:23.623Z,1.40
2022-09-03T13:00:16.112Z,1.67
2022-09-03T13:03:07.861Z,1.25
2022-09-03T13:05:59.003Z,1.60
2022-09-03T13:08:50.850Z,1.42
2022-09-03T13:11:39.478Z,1.58
2022-09-03T13:14:28.045Z,1.42
2022-09-03T13:17:28.548Z,1.58
2022-09-03T13:20:31.970Z,1.52
2022-09-03T13:23:39.160Z,1.60
2022-09-03T13:26:39.563Z,1.40
2022-09-03T13:29:52.658Z,1.60
2022-09-03T13:32:51.940Z,1.42
2022-09-03T13:35:47.024Z,1.63
2022-09-03T13:38:41.281Z,1.52
2022-09-03T13:41:38.514Z,1.90
2022-09-03T13:44:38.073Z,1.55
2022-09-03T13:47:36.817Z,1.77
2022-09-03T13:50:27.101Z,1.60
2022-09-03T13:53:30.458Z,1.50
2022-09-03T13:56:25.874Z,1.25
2022-09-03T13:59:21.707Z,1.48
2022-09-03T14:02:23.762Z,1.50
2022-09-03T14:05:18.018Z,1.35
2022-09-03T14:08:14.406Z,1.50
2022-09-03T14:11:15.737Z,1.50
2022-09-03T14:14:13.669Z,1.65
2022-09-03T14:17:07.487Z,1.65
2022-09-03T14:19:59.695Z,1.80
2022-09-03T14:22:54.694Z,1.83
2022-09-03T14:25:44.919Z,1.50
2022-09-03T14:28:37.294Z,2.85
2022-09-03T14:31:40.155Z,2.97
2022-09-03T14:34:41.648Z,2.00
2022-09-03T14:37:47.689Z,1.60
2022-09-03T14:40:44.449Z,1.52
2022-09-03T14:43:59.302Z,1.90
2022-09-03T14:46:58.263Z,1.83
2022-09-03T14:49:55.402Z,1.50
2022-09-03T14:53:09.355Z,1.67
2022-09-03T14:56:16.732Z,1.48
2022-09-03T14:59:26.172Z,2.10
2022-09-03T15:02:25.727Z,1.58
2022-09-03T15:05:22.428Z,1.70
2022-09-03T15:08:18.206Z,1.38
2022-09-03T15:11:17.027Z,1.60
2022-09-03T15:14:11.914Z,1.52
2022-09-03T15:17:03.336Z,1.58
2022-09-03T15:20:07.639Z,1.40
2022-09-03T15:23:13.550Z,1.48
2022-09-03T15:26:33.361Z,1.42
2022-09-03T15:29:40.617Z,1.40
2022-09-03T15:32:40.953Z,1.98
2022-09-03T15:35:45.223Z,1.80
2022-09-03T15:38:44.983Z,1.55
2022-09-03T15:41:41.711Z,1.85
2022-09-03T15:44:38.734Z,2.00
2022-09-03T15:47:52.065Z,1.65
2022-09-03T15:50:52.794Z,1.60
2022-09-03T15:53:47.799Z,1.23
2022-09-03T15:56:41.040Z,1.50
2022-09-03T15:59:39.431Z,1.55
2022-09-03T16:02:33.733Z,1.70
2022-09-03T16:05:24.163Z,1.45
2022-09-03T16:08:20.970Z,1.80
2022-09-03T16:11:17.194Z,1.30
2022-09-03T16:14:11.664Z,1.30
2022-09-03T16:17:06.530Z,1.60
2022-09-03T16:19:59.886Z,1.88
2022-09-03T16:25:50.099Z,1.40
2022-09-03T16:28:48.152Z,1.45
2022-09-03T16:31:50.014Z,1.50
2022-09-03T16:34:50.630Z,1.53
2022-09-03T16:37:52.897Z,1.92
2022-09-03T16:40:46.956Z,1.48
2022-09-03T16:43:45.244Z,1.40
2022-09-03T16:46:48.490Z,1.70
2022-09-03T16:49:49.012Z,1.65
2022-09-03T16:52:48.956Z,1.58
2022-09-03T16:55:59.128Z,1.60
2022-09-03T16:59:00.497Z,1.70
2022-09-03T17:02:18.293Z,1.70
2022-09-03T17:05:34.167Z,1.50
2022-09-03T17:08:28.997Z,1.50
2022-09-03T17:11:38.306Z,2.05
2022-09-03T17:14:44.077Z,1.80
2022-09-03T17:17:49.906Z,1.40
2022-09-03T17:20:51.090Z,2.10
2022-09-03T17:23:55.172Z,1.77
2022-09-03T17:26:56.038Z,1.77
2022-09-03T17:29:57.093Z,1.70
2022-09-03T17:33:10.023Z,1.73
2022-09-03T17:36:07.816Z,1.55
2022-09-03T17:39:18.174Z,1.70
2022-09-03T17:42:13.532Z,1.30
2022-09-03T17:45:15.335Z,1.50
2022-09-03T17:48:18.559Z,1.50
2022-09-03T17:51:12.829Z,1.65
2022-09-03T17:54:07.969Z,1.25
2022-09-03T17:57:04.258Z,1.20
2022-09-03T17:59:57.103Z,1.30
2022-09-03T18:02:51.623Z,1.23
2022-09-03T18:05:48.524Z,1.40
2022-09-03T18:08:44.921Z,1.35
2022-09-03T18:11:38.581Z,1.50
2022-09-03T18:14:32.351Z,1.45
2022-09-03T18:17:29.417Z,1.40
2022-09-03T18:20:31.099Z,1.30
2022-09-03T18:23:41.764Z,1.17
2022-09-03T18:26:50.288Z,1.55
2022-09-03T18:30:02.437Z,1.25
2022-09-03T18:33:07.387Z,1.40
2022-09-03T18:36:14.351Z,1.88
2022-09-03T18:39:30.494Z,1.38
2022-09-03T18:42:44.870Z,1.35
2022-09-03T18:49:30.278Z,1.50
2022-09-03T18:52:43.643Z,1.30
2022-09-03T18:56:01.744Z,1.65
2022-09-03T18:59:23.337Z,1.92
2022-09-03T19:02:42.040Z,1.67
2022-09-03T19:05:57.046Z,1.67
2022-09-03T19:09:10.789Z,2.13
2022-09-03T19:12:35.150Z,2.03
2022-09-03T19:15:44.683Z,1.65
2022-09-03T19:19:10.774Z,1.85
2022-09-03T19:22:26.533Z,1.80
2022-09-03T19:25:33.811Z,1.67
2022-09-03T19:28:42.099Z,1.55
2022-09-03T19:32:00.381Z,1.80
2022-09-03T19:35:18.304Z,1.70
2022-09-03T19:38:32.081Z,1.80
2022-09-03T19:41:48.978Z,1.83
2022-09-03T19:45:11.384Z,2.10
2022-09-03T19:48:27.852Z,2.10
2022-09-03T19:51:37.566Z,1.70
2022-09-03T19:54:45.918Z,2.05
2022-09-03T19:57:51.288Z,2.13
2022-09-03T20:00:57.587Z,2.00
2022-09-03T20:04:02.182Z,1.70
2022-09-03T20:07:07.036Z,2.00
2022-09-03T20:10:15.022Z,1.92
2022-09-03T20:13:07.942Z,2.28
2022-09-03T20:16:07.273Z,2.45
2022-09-03T20:19:01.118Z,2.03
2022-09-03T20:21:52.976Z,2.20
2022-09-03T20:24:47.347Z,2.10
2022-09-03T20:27:44.670Z,1.95
2022-09-03T20:30:37.757Z,2.30
2022-09-03T20:33:42.213Z,2.40
2022-09-03T20:36:41.796Z,2.33
2022-09-03T20:39:41.425Z,1.88
2022-09-03T20:42:43.070Z,3.67
2022-09-03T20:45:42.380Z,2.70
2022-09-03T20:48:47.340Z,2.40
2022-09-03T20:51:41.183Z,2.47
2022-09-03T20:54:33.830Z,2.45
2022-09-03T20:57:32.502Z,2.95
2022-09-03T21:00:23.673Z,2.90
2022-09-03T21:03:17.029Z,3.58
2022-09-03T21:06:18.114Z,3.35
2022-09-03T21:09:21.625Z,4.88
2022-09-03T21:12:14.696Z,4.50
2022-09-03T21:15:09.316Z,3.10
2022-09-03T21:18:07.895Z,2.95
2022-09-03T21:21:09.746Z,2.63
2022-09-03T21:24:06.278Z,2.63
2022-09-03T21:26:58.376Z,2.58
2022-09-03T21:29:59.681Z,2.67
2022-09-03T21:32:52.399Z,2.65
2022-09-03T21:35:44.031Z,2.03
2022-09-03T21:38:37.292Z,2.30
2022-09-03T21:41:31.710Z,2.03
2022-09-03T21:44:23.953Z,2.15
2022-09-03T21:47:13.892Z,2.08
2022-09-03T21:50:11.946Z,2.20
2022-09-03T21:53:08.172Z,2.00
2022-09-03T21:56:14.971Z,2.17
2022-09-03T21:59:10.668Z,2.95
2022-09-03T22:02:05.587Z,2.90
2022-09-03T22:04:53.674Z,2.97
2022-09-03T22:07:56.329Z,2.67
2022-09-03T22:10:55.427Z,2.25
2022-09-03T22:13:48.705Z,2.15
2022-09-03T22:16:45.011Z,2.22
2022-09-03T22:19:40.570Z,2.17
2022-09-03T22:22:44.375Z,2.90
2022-09-03T22:25:40.660Z,1.98
2022-09-03T22:28:37.951Z,1.77
2022-09-03T22:31:37.115Z,1.70
2022-09-03T22:34:41.866Z,1.75
2022-09-03T22:37:43.713Z,1.98
2022-09-03T22:40:37.770Z,2.10
2022-09-03T22:43:37.268Z,1.90
2022-09-03T22:46:28.803Z,2.10
2022-09-03T22:49:30.385Z,2.28
2022-09-03T22:52:31.060Z,1.95
2022-09-03T22:55:21.465Z,1.83
2022-09-03T22:58:12.558Z,1.77
2022-09-03T23:01:05.468Z,2.20
2022-09-03T23:03:58.014Z,1.95
2022-09-03T23:06:53.625Z,1.92
2022-09-03T23:09:45.763Z,1.70
2022-09-03T23:12:42.049Z,2.30
2022-09-03T23:15:30.638Z,2.05
2022-09-03T23:18:27.098Z,1.63
2022-09-03T23:21:24.023Z,1.77
2022-09-03T23:24:17.733Z,1.60
2022-09-03T23:27:11.902Z,2.55
2022-09-03T23:30:03.025Z,1.83
2022-09-03T23:32:54.946Z,1.60
2022-09-03T23:35:49.969Z,1.52
2022-09-03T23:38:45.942Z,1.55
2022-09-03T23:41:43.985Z,1.92
2022-09-03T23:44:48.606Z,1.38
2022-09-03T23:47:45.804Z,1.60
2022-09-03T23:50:40.172Z,1.50
2022-09-03T23:53:39.830Z,1.52
2022-09-03T23:56:45.047Z,1.50
2022-09-03T23:59:44.791Z,1.50
